Clubb, Missouri
Current Conditions -  °F | °C
As of 9:53 AM on Saturday 25 Oct 2014 (Local Time) from KPOF Reporting Station
Haze Haze  
Wind Chill: 64°   Ceiling: Unl
Heat Index: 64°   Visibility: 6mi
Dew Point: 57°   Wind: 5mph
Humidity: 78%   Direction: 300°WNW
Pressure: 30.06"   Gusts: NA
Location:  37.21°N, 90.35°W
Report Text: KPOF 251453Z AUTO 30004KT 6SM HZ SCT055 18/14 A3006 RMK AO2 SLP180 T01780139 51009
Loading
Personal Weather Stations






























Interactive Weather Map
Tropical Storm Tracking
New forecast layout! Learn more

10-Day Weather Forecast

Advertisements
Track Severe Weather on mobile